FHEGB LHBP-LDPL
Flight info
| Callsign | FHEGB |
|---|---|
| Flight time | 1h 26m |
| Altitude | 6500 |
| Route | DUNAMO PUSTA SVR SUNOR ODOKA JAP NEMEK LDRI |
| Aircraft | BE60/L-SDFGRY/C |
Departure
| Time | 2026-04-26 18:19 |
|---|---|
| Airport | Budapest Liszt Ferenc International Airport (LHBP) |
Arrival
| Time | 2026-04-26 19:46 |
|---|---|
| Airport | Pula Airport (LDPL) |
| Time | Latitude | Longitude | Altitude | Speed | Heading |
|---|---|---|---|---|---|
| 2026-04-26 17:44 | 47.43612 | 19.25916 | 484 ft | 0 kts | 290° |
| 2026-04-26 18:11 | 47.43613 | 19.25915 | 457 ft | 0 kts | 290° |
| 2026-04-26 18:12 | 47.43613 | 19.25912 | 457 ft | 0 kts | 289° |
| 2026-04-26 18:13 | 47.43619 | 19.25876 | 482 ft | 10 kts | 263° |
| 2026-04-26 18:13 | 47.43541 | 19.25838 | 484 ft | 16 kts | 185° |
| 2026-04-26 18:13 | 47.43531 | 19.25756 | 484 ft | 18 kts | 313° |
| 2026-04-26 18:14 | 47.43468 | 19.25551 | 484 ft | 18 kts | 215° |
| 2026-04-26 18:14 | 47.43453 | 19.25534 | 485 ft | 3 kts | 222° |
| 2026-04-26 18:14 | 47.43416 | 19.25482 | 485 ft | 15 kts | 225° |
| 2026-04-26 18:14 | 47.43278 | 19.25296 | 481 ft | 32 kts | 222° |
| 2026-04-26 18:15 | 47.43186 | 19.25175 | 485 ft | 0 kts | 222° |
| 2026-04-26 18:16 | 47.43168 | 19.25150 | 485 ft | 3 kts | 222° |
| 2026-04-26 18:16 | 47.43146 | 19.25120 | 485 ft | 0 kts | 223° |
| 2026-04-26 18:17 | 47.43141 | 19.25113 | 481 ft | 9 kts | 223° |
| 2026-04-26 18:17 | 47.43133 | 19.25102 | 483 ft | 0 kts | 223° |
| 2026-04-26 18:17 | 47.43099 | 19.25024 | 484 ft | 19 kts | 258° |
| 2026-04-26 18:17 | 47.43105 | 19.24929 | 485 ft | 0 kts | 295° |
| 2026-04-26 18:18 | 47.43105 | 19.24928 | 485 ft | 0 kts | 307° |
| 2026-04-26 18:18 | 47.43106 | 19.24927 | 485 ft | 0 kts | 310° |
| 2026-04-26 18:18 | 47.43228 | 19.24733 | 482 ft | 54 kts | 312° |
| 2026-04-26 18:19 | 47.43585 | 19.24158 | 482 ft | 93 kts | 314° |
| 2026-04-26 18:19 | 47.44065 | 19.23437 | 680 ft | 103 kts | 317° |
| 2026-04-26 18:19 | 47.44594 | 19.22730 | 1013 ft | 103 kts | 322° |
| 2026-04-26 18:19 | 47.45134 | 19.22028 | 1374 ft | 107 kts | 305° |
| 2026-04-26 18:20 | 47.45054 | 19.20914 | 1723 ft | 125 kts | 237° |
| 2026-04-26 18:20 | 47.44458 | 19.19970 | 2126 ft | 126 kts | 234° |
| 2026-04-26 18:20 | 47.43883 | 19.19032 | 2456 ft | 127 kts | 234° |
| 2026-04-26 18:20 | 47.43491 | 19.18387 | 2725 ft | 128 kts | 235° |
| 2026-04-26 18:21 | 47.42701 | 19.17063 | 3251 ft | 129 kts | 234° |
| 2026-04-26 18:21 | 47.42113 | 19.16075 | 3587 ft | 129 kts | 234° |
| 2026-04-26 18:21 | 47.41515 | 19.15068 | 3916 ft | 130 kts | 234° |
| 2026-04-26 18:21 | 47.40923 | 19.14061 | 4281 ft | 130 kts | 233° |
| 2026-04-26 18:22 | 47.40130 | 19.13435 | 4566 ft | 136 kts | 185° |
| 2026-04-26 18:22 | 47.39237 | 19.13060 | 4933 ft | 133 kts | 212° |
| 2026-04-26 18:22 | 47.38583 | 19.12138 | 5267 ft | 130 kts | 236° |
| 2026-04-26 18:22 | 47.38003 | 19.11103 | 5626 ft | 132 kts | 237° |
| 2026-04-26 18:23 | 47.37436 | 19.10035 | 5990 ft | 134 kts | 237° |
| 2026-04-26 18:23 | 47.36866 | 19.08938 | 6366 ft | 135 kts | 238° |
| 2026-04-26 18:23 | 47.36272 | 19.07776 | 6507 ft | 156 kts | 238° |
| 2026-04-26 18:23 | 47.35574 | 19.06404 | 6511 ft | 177 kts | 237° |
| 2026-04-26 18:24 | 47.34802 | 19.04900 | 6508 ft | 187 kts | 236° |
| 2026-04-26 18:24 | 47.34032 | 19.03410 | 6500 ft | 178 kts | 236° |
| 2026-04-26 18:24 | 47.33302 | 19.01993 | 6457 ft | 168 kts | 237° |
| 2026-04-26 18:24 | 47.32637 | 19.00704 | 6451 ft | 148 kts | 238° |
| 2026-04-26 18:25 | 47.32041 | 18.99567 | 6431 ft | 137 kts | 235° |
| 2026-04-26 18:25 | 47.31377 | 18.98599 | 6467 ft | 134 kts | 220° |
| 2026-04-26 18:25 | 47.30695 | 18.97715 | 6475 ft | 129 kts | 228° |
| 2026-04-26 18:25 | 47.30059 | 18.96809 | 6476 ft | 125 kts | 233° |
| 2026-04-26 18:26 | 47.29387 | 18.95796 | 6528 ft | 151 kts | 232° |
| 2026-04-26 18:26 | 47.28640 | 18.94671 | 6518 ft | 166 kts | 232° |
| 2026-04-26 18:26 | 47.27793 | 18.93389 | 6521 ft | 178 kts | 231° |
| 2026-04-26 18:26 | 47.26918 | 18.92048 | 6508 ft | 184 kts | 231° |
| 2026-04-26 18:27 | 47.26019 | 18.90674 | 6502 ft | 188 kts | 231° |
| 2026-04-26 18:27 | 47.25096 | 18.89266 | 6502 ft | 193 kts | 231° |
| 2026-04-26 18:27 | 47.24159 | 18.87836 | 6495 ft | 195 kts | 231° |
| 2026-04-26 18:27 | 47.23214 | 18.86399 | 6489 ft | 194 kts | 231° |
| 2026-04-26 18:28 | 47.22266 | 18.84952 | 6492 ft | 191 kts | 231° |
| 2026-04-26 18:28 | 47.21386 | 18.83621 | 6473 ft | 178 kts | 231° |
| 2026-04-26 18:28 | 47.20559 | 18.82366 | 6475 ft | 166 kts | 231° |
| 2026-04-26 18:28 | 47.19777 | 18.81172 | 6479 ft | 158 kts | 232° |
| 2026-04-26 18:29 | 47.19036 | 18.80041 | 6479 ft | 150 kts | 232° |
| 2026-04-26 18:29 | 47.18330 | 18.78966 | 6476 ft | 143 kts | 232° |
| 2026-04-26 18:29 | 47.17650 | 18.77931 | 6470 ft | 138 kts | 232° |
| 2026-04-26 18:29 | 47.17054 | 18.77027 | 6328 ft | 130 kts | 225° |
| 2026-04-26 18:30 | 47.16425 | 18.76081 | 6466 ft | 128 kts | 233° |
| 2026-04-26 18:30 | 47.15793 | 18.75119 | 6486 ft | 134 kts | 233° |
| 2026-04-26 18:30 | 47.15130 | 18.74111 | 6504 ft | 140 kts | 233° |
| 2026-04-26 18:30 | 47.14454 | 18.73051 | 6503 ft | 144 kts | 236° |
| 2026-04-26 18:31 | 47.13771 | 18.71865 | 6517 ft | 165 kts | 236° |
| 2026-04-26 18:31 | 47.12993 | 18.70465 | 6517 ft | 188 kts | 236° |
| 2026-04-26 18:31 | 47.12143 | 18.68885 | 6520 ft | 205 kts | 237° |
| 2026-04-26 18:31 | 47.11259 | 18.67168 | 6512 ft | 216 kts | 238° |
| 2026-04-26 18:32 | 47.10339 | 18.65380 | 6503 ft | 223 kts | 239° |
| 2026-04-26 18:32 | 47.09406 | 18.63538 | 6496 ft | 226 kts | 239° |
| 2026-04-26 18:32 | 47.08468 | 18.61699 | 6497 ft | 229 kts | 239° |
| 2026-04-26 18:32 | 47.07508 | 18.59824 | 6491 ft | 231 kts | 239° |
| 2026-04-26 18:33 | 47.06539 | 18.57933 | 6499 ft | 230 kts | 239° |
| 2026-04-26 18:33 | 47.05581 | 18.56067 | 6494 ft | 228 kts | 239° |
| 2026-04-26 18:33 | 47.04636 | 18.54221 | 6494 ft | 225 kts | 239° |
| 2026-04-26 18:33 | 47.03703 | 18.52400 | 6490 ft | 221 kts | 239° |
| 2026-04-26 18:34 | 47.02784 | 18.50609 | 6485 ft | 219 kts | 239° |
| 2026-04-26 18:34 | 47.01876 | 18.48836 | 6486 ft | 217 kts | 240° |
| 2026-04-26 18:34 | 47.00972 | 18.47074 | 6485 ft | 216 kts | 240° |
| 2026-04-26 18:34 | 47.00083 | 18.45345 | 6481 ft | 209 kts | 239° |
| 2026-04-26 18:35 | 46.99223 | 18.43670 | 6483 ft | 203 kts | 240° |
| 2026-04-26 18:35 | 46.98447 | 18.42157 | 6344 ft | 199 kts | 236° |
| 2026-04-26 18:35 | 46.97625 | 18.40554 | 6279 ft | 193 kts | 233° |
| 2026-04-26 18:35 | 46.96901 | 18.39122 | 6450 ft | 189 kts | 241° |
| 2026-04-26 18:36 | 46.96097 | 18.37566 | 6457 ft | 191 kts | 240° |
| 2026-04-26 18:36 | 46.95292 | 18.36013 | 6456 ft | 192 kts | 240° |
| 2026-04-26 18:36 | 46.94487 | 18.34453 | 6461 ft | 191 kts | 243° |
| 2026-04-26 18:36 | 46.93689 | 18.32896 | 6461 ft | 192 kts | 243° |
| 2026-04-26 18:37 | 46.92887 | 18.31335 | 6462 ft | 192 kts | 243° |
| 2026-04-26 18:37 | 46.92086 | 18.29778 | 6462 ft | 192 kts | 243° |
| 2026-04-26 18:37 | 46.91285 | 18.28221 | 6463 ft | 191 kts | 243° |
| 2026-04-26 18:37 | 46.90485 | 18.26670 | 6463 ft | 190 kts | 244° |
| 2026-04-26 18:38 | 46.89693 | 18.25131 | 6461 ft | 189 kts | 243° |
| 2026-04-26 18:38 | 46.89166 | 18.24106 | 6466 ft | 194 kts | 244° |
| 2026-04-26 18:38 | 46.88303 | 18.22499 | 6475 ft | 209 kts | 237° |
| 2026-04-26 18:38 | 46.87324 | 18.20875 | 6478 ft | 214 kts | 242° |
| 2026-04-26 18:39 | 46.86422 | 18.19103 | 6466 ft | 222 kts | 241° |
| 2026-04-26 18:39 | 46.85474 | 18.17284 | 6376 ft | 226 kts | 244° |
| 2026-04-26 18:39 | 46.84621 | 18.15378 | 6373 ft | 221 kts | 245° |
| 2026-04-26 18:39 | 46.83755 | 18.13657 | 6353 ft | 205 kts | 243° |
| 2026-04-26 18:40 | 46.82905 | 18.12015 | 6337 ft | 201 kts | 243° |
| 2026-04-26 18:40 | 46.82074 | 18.10412 | 6257 ft | 194 kts | 243° |
| 2026-04-26 18:40 | 46.81275 | 18.08865 | 6257 ft | 189 kts | 244° |
| 2026-04-26 18:40 | 46.80486 | 18.07334 | 6255 ft | 188 kts | 244° |
| 2026-04-26 18:41 | 46.79689 | 18.05818 | 6256 ft | 192 kts | 238° |
| 2026-04-26 18:41 | 46.78779 | 18.04384 | 6264 ft | 195 kts | 241° |
| 2026-04-26 18:41 | 46.77931 | 18.02766 | 6278 ft | 206 kts | 243° |
| 2026-04-26 18:41 | 46.77051 | 18.01051 | 6276 ft | 217 kts | 240° |
| 2026-04-26 18:42 | 46.76083 | 17.99325 | 6277 ft | 223 kts | 239° |
| 2026-04-26 18:42 | 46.75062 | 17.97585 | 6278 ft | 228 kts | 237° |
| 2026-04-26 18:42 | 46.74144 | 17.95738 | 6276 ft | 222 kts | 248° |
| 2026-04-26 18:42 | 46.73385 | 17.93799 | 6275 ft | 219 kts | 249° |
| 2026-04-26 18:43 | 46.72639 | 17.91868 | 6264 ft | 218 kts | 249° |
| 2026-04-26 18:43 | 46.71903 | 17.89988 | 6255 ft | 209 kts | 249° |
| 2026-04-26 18:43 | 46.71187 | 17.88174 | 6249 ft | 204 kts | 250° |
| 2026-04-26 18:43 | 46.70503 | 17.86386 | 6248 ft | 200 kts | 250° |
| 2026-04-26 18:44 | 46.69852 | 17.84625 | 6252 ft | 194 kts | 253° |
| 2026-04-26 18:44 | 46.69273 | 17.82869 | 6251 ft | 190 kts | 254° |
| 2026-04-26 18:44 | 46.68710 | 17.81137 | 6252 ft | 188 kts | 255° |
| 2026-04-26 18:44 | 46.68145 | 17.79424 | 6251 ft | 188 kts | 254° |
| 2026-04-26 18:45 | 46.67573 | 17.77707 | 6253 ft | 189 kts | 254° |
| 2026-04-26 18:45 | 46.67001 | 17.75991 | 6259 ft | 189 kts | 254° |
| 2026-04-26 18:45 | 46.66429 | 17.74267 | 6254 ft | 188 kts | 254° |
| 2026-04-26 18:45 | 46.65867 | 17.72560 | 6255 ft | 187 kts | 254° |
| 2026-04-26 18:46 | 46.65307 | 17.70852 | 6252 ft | 187 kts | 254° |
| 2026-04-26 18:46 | 46.64751 | 17.69147 | 6259 ft | 187 kts | 254° |
| 2026-04-26 18:46 | 46.64191 | 17.67439 | 6259 ft | 187 kts | 254° |
| 2026-04-26 18:46 | 46.63646 | 17.65730 | 6257 ft | 185 kts | 254° |
| 2026-04-26 18:47 | 46.63126 | 17.64014 | 6258 ft | 185 kts | 254° |
| 2026-04-26 18:47 | 46.62623 | 17.62287 | 6261 ft | 186 kts | 254° |
| 2026-04-26 18:47 | 46.62137 | 17.60549 | 6262 ft | 186 kts | 255° |
| 2026-04-26 18:47 | 46.61655 | 17.58811 | 6262 ft | 185 kts | 255° |
| 2026-04-26 18:48 | 46.61053 | 17.57141 | 6261 ft | 191 kts | 240° |
| 2026-04-26 18:48 | 46.60180 | 17.55669 | 6265 ft | 193 kts | 235° |
| 2026-04-26 18:48 | 46.59280 | 17.54224 | 6265 ft | 193 kts | 235° |
| 2026-04-26 18:48 | 46.58381 | 17.52777 | 6268 ft | 193 kts | 235° |
| 2026-04-26 18:49 | 46.57483 | 17.51327 | 6266 ft | 193 kts | 235° |
| 2026-04-26 18:49 | 46.56676 | 17.49807 | 6268 ft | 186 kts | 251° |
| 2026-04-26 18:49 | 46.56248 | 17.48068 | 6271 ft | 181 kts | 264° |
| 2026-04-26 18:49 | 46.56072 | 17.46278 | 6272 ft | 178 kts | 272° |
| 2026-04-26 18:50 | 46.55996 | 17.44474 | 6277 ft | 183 kts | 273° |
| 2026-04-26 18:50 | 46.55923 | 17.42585 | 6283 ft | 192 kts | 270° |
| 2026-04-26 18:50 | 46.55449 | 17.40716 | 6283 ft | 209 kts | 240° |
| 2026-04-26 18:50 | 46.54396 | 17.39185 | 6283 ft | 219 kts | 226° |
| 2026-04-26 18:51 | 46.53210 | 17.37761 | 6283 ft | 223 kts | 225° |
| 2026-04-26 18:51 | 46.52018 | 17.36348 | 6282 ft | 217 kts | 225° |
| 2026-04-26 18:51 | 46.50904 | 17.35054 | 6258 ft | 196 kts | 225° |
| 2026-04-26 18:51 | 46.49878 | 17.33899 | 6315 ft | 176 kts | 225° |
| 2026-04-26 18:52 | 46.48928 | 17.32863 | 6402 ft | 174 kts | 225° |
| 2026-04-26 18:52 | 46.47933 | 17.31736 | 6474 ft | 188 kts | 230° |
| 2026-04-26 18:52 | 46.47155 | 17.30192 | 6487 ft | 194 kts | 248° |
| 2026-04-26 18:52 | 46.46577 | 17.28378 | 6483 ft | 202 kts | 252° |
| 2026-04-26 18:53 | 46.46029 | 17.26465 | 6486 ft | 208 kts | 252° |
| 2026-04-26 18:53 | 46.45437 | 17.24526 | 6483 ft | 214 kts | 245° |
| 2026-04-26 18:53 | 46.44564 | 17.22736 | 6481 ft | 220 kts | 237° |
| 2026-04-26 18:53 | 46.43615 | 17.20987 | 6383 ft | 221 kts | 236° |
| 2026-04-26 18:54 | 46.42674 | 17.19245 | 6274 ft | 217 kts | 237° |
| 2026-04-26 18:54 | 46.41871 | 17.17577 | 6253 ft | 182 kts | 243° |
| 2026-04-26 18:54 | 46.41219 | 17.16062 | 6255 ft | 182 kts | 244° |
| 2026-04-26 18:54 | 46.40620 | 17.14404 | 6266 ft | 191 kts | 248° |
| 2026-04-26 18:55 | 46.39943 | 17.12698 | 6267 ft | 199 kts | 242° |
| 2026-04-26 18:55 | 46.39168 | 17.11007 | 6272 ft | 204 kts | 241° |
| 2026-04-26 18:55 | 46.38376 | 17.09287 | 6272 ft | 207 kts | 241° |
| 2026-04-26 18:55 | 46.37578 | 17.07538 | 6274 ft | 209 kts | 240° |
| 2026-04-26 18:56 | 46.36820 | 17.05736 | 6272 ft | 209 kts | 245° |
| 2026-04-26 18:56 | 46.36112 | 17.03880 | 6270 ft | 213 kts | 244° |
| 2026-04-26 18:56 | 46.35326 | 17.02037 | 6268 ft | 217 kts | 239° |
| 2026-04-26 18:56 | 46.34491 | 17.00227 | 6270 ft | 213 kts | 240° |
| 2026-04-26 18:57 | 46.33709 | 16.98528 | 6255 ft | 191 kts | 240° |
| 2026-04-26 18:57 | 46.33218 | 16.97474 | 6255 ft | 191 kts | 240° |
| 2026-04-26 18:57 | 46.32240 | 16.95330 | 6248 ft | 191 kts | 240° |
| 2026-04-26 18:57 | 46.31525 | 16.93719 | 6253 ft | 190 kts | 240° |
| 2026-04-26 18:58 | 46.30812 | 16.92109 | 6253 ft | 190 kts | 242° |
| 2026-04-26 18:58 | 46.30102 | 16.90496 | 6255 ft | 190 kts | 241° |
| 2026-04-26 18:58 | 46.29393 | 16.88885 | 6255 ft | 190 kts | 241° |
| 2026-04-26 18:58 | 46.28660 | 16.87250 | 6255 ft | 197 kts | 240° |
| 2026-04-26 18:59 | 46.27915 | 16.85556 | 6266 ft | 203 kts | 241° |
| 2026-04-26 18:59 | 46.27141 | 16.83802 | 6266 ft | 211 kts | 241° |
| 2026-04-26 18:59 | 46.26356 | 16.81979 | 6265 ft | 216 kts | 242° |
| 2026-04-26 18:59 | 46.25531 | 16.80144 | 6269 ft | 220 kts | 237° |
| 2026-04-26 19:00 | 46.24595 | 16.78383 | 6268 ft | 217 kts | 234° |
| 2026-04-26 19:00 | 46.23749 | 16.76860 | 6241 ft | 177 kts | 234° |
| 2026-04-26 19:00 | 46.22966 | 16.75505 | 6249 ft | 175 kts | 234° |
| 2026-04-26 19:00 | 46.22145 | 16.74104 | 6245 ft | 192 kts | 233° |
| 2026-04-26 19:01 | 46.21267 | 16.72568 | 6262 ft | 203 kts | 234° |
| 2026-04-26 19:01 | 46.20375 | 16.71011 | 6260 ft | 198 kts | 234° |
| 2026-04-26 19:01 | 46.19496 | 16.69516 | 6257 ft | 193 kts | 234° |
| 2026-04-26 19:01 | 46.18640 | 16.68047 | 6252 ft | 190 kts | 234° |
| 2026-04-26 19:02 | 46.17800 | 16.66592 | 6249 ft | 188 kts | 234° |
| 2026-04-26 19:02 | 46.16964 | 16.65150 | 6242 ft | 187 kts | 234° |
| 2026-04-26 19:02 | 46.16135 | 16.63704 | 6239 ft | 193 kts | 236° |
| 2026-04-26 19:02 | 46.15618 | 16.62618 | 6248 ft | 197 kts | 240° |
| 2026-04-26 19:03 | 46.14614 | 16.60380 | 6259 ft | 204 kts | 240° |
| 2026-04-26 19:03 | 46.13805 | 16.58648 | 6260 ft | 208 kts | 237° |
| 2026-04-26 19:03 | 46.12897 | 16.57011 | 6257 ft | 210 kts | 233° |
| 2026-04-26 19:03 | 46.11955 | 16.55380 | 6260 ft | 212 kts | 233° |
| 2026-04-26 19:04 | 46.10990 | 16.53726 | 6258 ft | 219 kts | 233° |
| 2026-04-26 19:04 | 46.10004 | 16.52045 | 6256 ft | 217 kts | 233° |
| 2026-04-26 19:04 | 46.09108 | 16.50521 | 6236 ft | 193 kts | 232° |
| 2026-04-26 19:04 | 46.08214 | 16.49020 | 6237 ft | 197 kts | 232° |
| 2026-04-26 19:05 | 46.06399 | 16.46042 | 6263 ft | 198 kts | 232° |
| 2026-04-26 19:05 | 46.05508 | 16.44536 | 6268 ft | 197 kts | 232° |
| 2026-04-26 19:05 | 46.04598 | 16.43069 | 6264 ft | 194 kts | 232° |
| 2026-04-26 19:06 | 46.03702 | 16.41665 | 6258 ft | 192 kts | 231° |
| 2026-04-26 19:06 | 46.02833 | 16.40192 | 6259 ft | 194 kts | 233° |
| 2026-04-26 19:06 | 46.01946 | 16.38731 | 6261 ft | 194 kts | 232° |
| 2026-04-26 19:06 | 46.01050 | 16.37275 | 6267 ft | 195 kts | 231° |
| 2026-04-26 19:07 | 46.00154 | 16.35814 | 6261 ft | 194 kts | 232° |
| 2026-04-26 19:07 | 45.99263 | 16.34345 | 6258 ft | 195 kts | 231° |
| 2026-04-26 19:07 | 45.98405 | 16.32909 | 6269 ft | 195 kts | 232° |
| 2026-04-26 19:07 | 45.97495 | 16.31383 | 6260 ft | 195 kts | 232° |
| 2026-04-26 19:08 | 45.96635 | 16.29868 | 6263 ft | 195 kts | 234° |
| 2026-04-26 19:08 | 45.95901 | 16.28237 | 6256 ft | 194 kts | 242° |
| 2026-04-26 19:08 | 45.95310 | 16.26505 | 6257 ft | 192 kts | 255° |
| 2026-04-26 19:08 | 45.95080 | 16.24633 | 6259 ft | 190 kts | 264° |
| 2026-04-26 19:09 | 45.94794 | 16.22787 | 6267 ft | 191 kts | 248° |
| 2026-04-26 19:09 | 45.94176 | 16.21094 | 6266 ft | 191 kts | 244° |
| 2026-04-26 19:09 | 45.93521 | 16.19433 | 6261 ft | 191 kts | 243° |
| 2026-04-26 19:09 | 45.92866 | 16.17791 | 6262 ft | 191 kts | 243° |
| 2026-04-26 19:10 | 45.92211 | 16.16115 | 6258 ft | 192 kts | 242° |
| 2026-04-26 19:10 | 45.91563 | 16.14431 | 6256 ft | 193 kts | 243° |
| 2026-04-26 19:10 | 45.90906 | 16.12754 | 6263 ft | 192 kts | 243° |
| 2026-04-26 19:10 | 45.90252 | 16.11074 | 6258 ft | 193 kts | 243° |
| 2026-04-26 19:11 | 45.89604 | 16.09384 | 6263 ft | 193 kts | 243° |
| 2026-04-26 19:11 | 45.88950 | 16.07700 | 6259 ft | 193 kts | 243° |
| 2026-04-26 19:11 | 45.88304 | 16.06011 | 6262 ft | 192 kts | 243° |
| 2026-04-26 19:11 | 45.87651 | 16.04348 | 6260 ft | 191 kts | 244° |
| 2026-04-26 19:12 | 45.87034 | 16.02657 | 6258 ft | 190 kts | 248° |
| 2026-04-26 19:12 | 45.86503 | 16.00919 | 6258 ft | 190 kts | 249° |
| 2026-04-26 19:12 | 45.85986 | 15.99179 | 6259 ft | 189 kts | 249° |
| 2026-04-26 19:12 | 45.85465 | 15.97448 | 6260 ft | 189 kts | 249° |
| 2026-04-26 19:13 | 45.84949 | 15.95708 | 6257 ft | 190 kts | 249° |
| 2026-04-26 19:13 | 45.84433 | 15.93950 | 6254 ft | 192 kts | 249° |
| 2026-04-26 19:13 | 45.83926 | 15.92175 | 6235 ft | 193 kts | 248° |
| 2026-04-26 19:13 | 45.83445 | 15.90376 | 6248 ft | 194 kts | 249° |
| 2026-04-26 19:14 | 45.82970 | 15.88564 | 6234 ft | 194 kts | 249° |
| 2026-04-26 19:14 | 45.82501 | 15.86774 | 6241 ft | 195 kts | 249° |
| 2026-04-26 19:14 | 45.82017 | 15.84962 | 6243 ft | 194 kts | 248° |
| 2026-04-26 19:14 | 45.81851 | 15.84355 | 6241 ft | 194 kts | 248° |
| 2026-04-26 19:15 | 45.80945 | 15.81387 | 6248 ft | 194 kts | 243° |
| 2026-04-26 19:15 | 45.80328 | 15.79673 | 6243 ft | 193 kts | 242° |
| 2026-04-26 19:15 | 45.79710 | 15.77994 | 6245 ft | 193 kts | 242° |
| 2026-04-26 19:15 | 45.79087 | 15.76301 | 6251 ft | 192 kts | 242° |
| 2026-04-26 19:16 | 45.78456 | 15.74582 | 6251 ft | 193 kts | 242° |
| 2026-04-26 19:16 | 45.77825 | 15.72876 | 6249 ft | 193 kts | 242° |
| 2026-04-26 19:16 | 45.77205 | 15.71191 | 6244 ft | 194 kts | 242° |
| 2026-04-26 19:16 | 45.76572 | 15.69485 | 6245 ft | 194 kts | 242° |
| 2026-04-26 19:17 | 45.75926 | 15.67745 | 6247 ft | 197 kts | 242° |
| 2026-04-26 19:17 | 45.75280 | 15.66004 | 6252 ft | 198 kts | 242° |
| 2026-04-26 19:17 | 45.74628 | 15.64270 | 6255 ft | 198 kts | 238° |
| 2026-04-26 19:17 | 45.73806 | 15.62663 | 6250 ft | 201 kts | 231° |
| 2026-04-26 19:18 | 45.72925 | 15.61112 | 6254 ft | 200 kts | 231° |
| 2026-04-26 19:18 | 45.72055 | 15.59588 | 6255 ft | 200 kts | 231° |
| 2026-04-26 19:18 | 45.71191 | 15.58072 | 6253 ft | 199 kts | 231° |
| 2026-04-26 19:18 | 45.70330 | 15.56563 | 6235 ft | 187 kts | 231° |
| 2026-04-26 19:19 | 45.69532 | 15.55163 | 6221 ft | 180 kts | 231° |
| 2026-04-26 19:19 | 45.68744 | 15.53782 | 6220 ft | 183 kts | 231° |
| 2026-04-26 19:19 | 45.67996 | 15.52290 | 6225 ft | 186 kts | 236° |
| 2026-04-26 19:19 | 45.67287 | 15.50744 | 6222 ft | 186 kts | 237° |
| 2026-04-26 19:20 | 45.66579 | 15.49191 | 6218 ft | 187 kts | 237° |
| 2026-04-26 19:20 | 45.66339 | 15.48663 | 6224 ft | 187 kts | 237° |
| 2026-04-26 19:20 | 45.65163 | 15.46071 | 6221 ft | 188 kts | 237° |
| 2026-04-26 19:20 | 45.64450 | 15.44507 | 6225 ft | 188 kts | 237° |
| 2026-04-26 19:21 | 45.63795 | 15.42884 | 6225 ft | 188 kts | 245° |
| 2026-04-26 19:21 | 45.63367 | 15.41121 | 6226 ft | 187 kts | 246° |
| 2026-04-26 19:21 | 45.62955 | 15.40014 | 6229 ft | 187 kts | 238° |
| 2026-04-26 19:21 | 45.61986 | 15.37986 | 6218 ft | 187 kts | 234° |
| 2026-04-26 19:22 | 45.61487 | 15.37011 | 6225 ft | 191 kts | 234° |
| 2026-04-26 19:22 | 45.60656 | 15.35390 | 6226 ft | 202 kts | 234° |
| 2026-04-26 19:22 | 45.59818 | 15.33726 | 6226 ft | 211 kts | 238° |
| 2026-04-26 19:22 | 45.59167 | 15.31825 | 6226 ft | 215 kts | 243° |
| 2026-04-26 19:23 | 45.58410 | 15.30037 | 6224 ft | 211 kts | 236° |
| 2026-04-26 19:23 | 45.57574 | 15.28318 | 6224 ft | 205 kts | 235° |
| 2026-04-26 19:23 | 45.56767 | 15.26662 | 6218 ft | 202 kts | 235° |
| 2026-04-26 19:23 | 45.55971 | 15.25030 | 6211 ft | 200 kts | 235° |
| 2026-04-26 19:24 | 45.55178 | 15.23407 | 6216 ft | 198 kts | 235° |
| 2026-04-26 19:24 | 45.54395 | 15.21803 | 6206 ft | 197 kts | 235° |
| 2026-04-26 19:24 | 45.52835 | 15.18614 | 6216 ft | 195 kts | 234° |
| 2026-04-26 19:25 | 45.52060 | 15.17027 | 6204 ft | 196 kts | 234° |
| 2026-04-26 19:25 | 45.51542 | 15.15967 | 6210 ft | 197 kts | 234° |
| 2026-04-26 19:25 | 45.50505 | 15.13845 | 6216 ft | 197 kts | 234° |
| 2026-04-26 19:25 | 45.49724 | 15.12245 | 6212 ft | 196 kts | 234° |
| 2026-04-26 19:26 | 45.48943 | 15.10651 | 6217 ft | 196 kts | 234° |
| 2026-04-26 19:26 | 45.48163 | 15.09057 | 6216 ft | 195 kts | 234° |
| 2026-04-26 19:26 | 45.47387 | 15.07473 | 6215 ft | 194 kts | 234° |
| 2026-04-26 19:26 | 45.46612 | 15.05892 | 6213 ft | 195 kts | 234° |
| 2026-04-26 19:27 | 45.45835 | 15.04306 | 6209 ft | 196 kts | 234° |
| 2026-04-26 19:27 | 45.45068 | 15.02736 | 6298 ft | 192 kts | 234° |
| 2026-04-26 19:27 | 45.44303 | 15.01180 | 6299 ft | 192 kts | 234° |
| 2026-04-26 19:27 | 45.43535 | 14.99614 | 6302 ft | 194 kts | 234° |
| 2026-04-26 19:28 | 45.42761 | 14.98033 | 6309 ft | 196 kts | 235° |
| 2026-04-26 19:28 | 45.41983 | 14.96443 | 6310 ft | 195 kts | 234° |
| 2026-04-26 19:28 | 45.41203 | 14.94856 | 6303 ft | 196 kts | 234° |
| 2026-04-26 19:28 | 45.40431 | 14.93286 | 6410 ft | 191 kts | 234° |
| 2026-04-26 19:29 | 45.39676 | 14.91746 | 6493 ft | 189 kts | 234° |
| 2026-04-26 19:29 | 45.38919 | 14.90205 | 6494 ft | 191 kts | 234° |
| 2026-04-26 19:29 | 45.38155 | 14.88649 | 6493 ft | 193 kts | 233° |
| 2026-04-26 19:29 | 45.37380 | 14.87075 | 6493 ft | 196 kts | 233° |
| 2026-04-26 19:30 | 45.36595 | 14.85473 | 6489 ft | 198 kts | 234° |
| 2026-04-26 19:30 | 45.35805 | 14.83871 | 6491 ft | 198 kts | 234° |
| 2026-04-26 19:30 | 45.35015 | 14.82256 | 6487 ft | 200 kts | 236° |
| 2026-04-26 19:30 | 45.34560 | 14.81119 | 6487 ft | 200 kts | 242° |
| 2026-04-26 19:31 | 45.33756 | 14.78719 | 6494 ft | 205 kts | 243° |
| 2026-04-26 19:31 | 45.33091 | 14.76880 | 6493 ft | 212 kts | 232° |
| 2026-04-26 19:31 | 45.32061 | 14.75353 | 6495 ft | 218 kts | 232° |
| 2026-04-26 19:31 | 45.31320 | 14.73452 | 6494 ft | 222 kts | 243° |
| 2026-04-26 19:32 | 45.30450 | 14.71645 | 6495 ft | 223 kts | 227° |
| 2026-04-26 19:32 | 45.29445 | 14.69958 | 6491 ft | 225 kts | 232° |
| 2026-04-26 19:32 | 45.28507 | 14.68164 | 6491 ft | 227 kts | 232° |
| 2026-04-26 19:32 | 45.27587 | 14.66425 | 6478 ft | 213 kts | 232° |
| 2026-04-26 19:33 | 45.26717 | 14.64794 | 6475 ft | 202 kts | 231° |
| 2026-04-26 19:33 | 45.25891 | 14.63237 | 6477 ft | 194 kts | 231° |
| 2026-04-26 19:33 | 45.25096 | 14.61744 | 6471 ft | 183 kts | 232° |
| 2026-04-26 19:33 | 45.24355 | 14.60348 | 6475 ft | 172 kts | 232° |
| 2026-04-26 19:34 | 45.23651 | 14.59022 | 6472 ft | 165 kts | 231° |
| 2026-04-26 19:34 | 45.22961 | 14.57721 | 6477 ft | 170 kts | 232° |
| 2026-04-26 19:34 | 45.22227 | 14.56330 | 6487 ft | 181 kts | 232° |
| 2026-04-26 19:34 | 45.21451 | 14.54869 | 6492 ft | 189 kts | 232° |
| 2026-04-26 19:35 | 45.20660 | 14.53377 | 6492 ft | 195 kts | 232° |
| 2026-04-26 19:35 | 45.19837 | 14.51832 | 6490 ft | 198 kts | 232° |
| 2026-04-26 19:35 | 45.18996 | 14.50266 | 6494 ft | 200 kts | 232° |
| 2026-04-26 19:35 | 45.18151 | 14.48684 | 6493 ft | 202 kts | 232° |
| 2026-04-26 19:36 | 45.17303 | 14.47089 | 6493 ft | 203 kts | 232° |
| 2026-04-26 19:36 | 45.16728 | 14.46009 | 6492 ft | 203 kts | 232° |
| 2026-04-26 19:36 | 45.15599 | 14.43888 | 6491 ft | 204 kts | 232° |
| 2026-04-26 19:36 | 45.14742 | 14.42279 | 6485 ft | 205 kts | 232° |
| 2026-04-26 19:37 | 45.13885 | 14.40672 | 6485 ft | 204 kts | 232° |
| 2026-04-26 19:37 | 45.13027 | 14.39064 | 6484 ft | 205 kts | 232° |
| 2026-04-26 19:37 | 45.12169 | 14.37454 | 6483 ft | 205 kts | 232° |
| 2026-04-26 19:37 | 45.11311 | 14.35848 | 6485 ft | 205 kts | 232° |
| 2026-04-26 19:38 | 45.10452 | 14.34238 | 6484 ft | 205 kts | 233° |
| 2026-04-26 19:38 | 45.09592 | 14.32628 | 6478 ft | 206 kts | 232° |
| 2026-04-26 19:38 | 45.08692 | 14.31056 | 6475 ft | 206 kts | 229° |
| 2026-04-26 19:38 | 45.07779 | 14.29482 | 6472 ft | 207 kts | 229° |
| 2026-04-26 19:39 | 45.06868 | 14.27907 | 6471 ft | 207 kts | 229° |
| 2026-04-26 19:39 | 45.05961 | 14.26323 | 6471 ft | 207 kts | 229° |
| 2026-04-26 19:39 | 45.05055 | 14.24739 | 6470 ft | 207 kts | 229° |
| 2026-04-26 19:39 | 45.04137 | 14.23134 | 6248 ft | 218 kts | 229° |
| 2026-04-26 19:40 | 45.03157 | 14.21423 | 5770 ft | 227 kts | 229° |
| 2026-04-26 19:40 | 45.02163 | 14.19681 | 5281 ft | 228 kts | 229° |
| 2026-04-26 19:40 | 45.01170 | 14.17932 | 4798 ft | 228 kts | 229° |
| 2026-04-26 19:40 | 45.00178 | 14.16180 | 4301 ft | 228 kts | 230° |
| 2026-04-26 19:41 | 44.99176 | 14.14444 | 3840 ft | 227 kts | 228° |
| 2026-04-26 19:41 | 44.98166 | 14.12772 | 3357 ft | 214 kts | 227° |
| 2026-04-26 19:41 | 44.97241 | 14.11260 | 2959 ft | 191 kts | 227° |
| 2026-04-26 19:41 | 44.96684 | 14.10354 | 2691 ft | 181 kts | 227° |
| 2026-04-26 19:42 | 44.95605 | 14.08670 | 2293 ft | 164 kts | 224° |
| 2026-04-26 19:42 | 44.94782 | 14.07630 | 2146 ft | 154 kts | 218° |
| 2026-04-26 19:42 | 44.93950 | 14.06724 | 2013 ft | 151 kts | 216° |
| 2026-04-26 19:42 | 44.93071 | 14.05856 | 1994 ft | 155 kts | 214° |
| 2026-04-26 19:43 | 44.92164 | 14.05018 | 1965 ft | 156 kts | 211° |
| 2026-04-26 19:43 | 44.91289 | 14.04297 | 1889 ft | 132 kts | 211° |
| 2026-04-26 19:43 | 44.90506 | 14.03560 | 1843 ft | 140 kts | 215° |
| 2026-04-26 19:43 | 44.89799 | 14.02746 | 1714 ft | 127 kts | 230° |
| 2026-04-26 19:44 | 44.89481 | 14.01706 | 1570 ft | 114 kts | 268° |
| 2026-04-26 19:44 | 44.89504 | 14.00583 | 1421 ft | 116 kts | 273° |
| 2026-04-26 19:44 | 44.89507 | 13.99448 | 1251 ft | 117 kts | 269° |
| 2026-04-26 19:44 | 44.89474 | 13.98315 | 1023 ft | 115 kts | 270° |
| 2026-04-26 19:45 | 44.89460 | 13.97219 | 840 ft | 110 kts | 268° |
| 2026-04-26 19:45 | 44.89436 | 13.96158 | 675 ft | 106 kts | 270° |
| 2026-04-26 19:45 | 44.89415 | 13.95104 | 500 ft | 108 kts | 268° |
| 2026-04-26 19:45 | 44.89389 | 13.94067 | 287 ft | 104 kts | 269° |
| 2026-04-26 19:46 | 44.89372 | 13.93147 | 225 ft | 76 kts | 269° |
| 2026-04-26 19:46 | 44.89361 | 13.92769 | 213 ft | 35 kts | 270° |
| 2026-04-26 19:46 | 44.89350 | 13.92338 | 202 ft | 40 kts | 268° |
| 2026-04-26 19:46 | 44.89350 | 13.91988 | 194 ft | 24 kts | 268° |
| 2026-04-26 19:47 | 44.89426 | 13.91930 | 192 ft | 13 kts | 358° |
| 2026-04-26 19:47 | 44.89487 | 13.91927 | 192 ft | 14 kts | 358° |
| 2026-04-26 19:47 | 44.89566 | 13.91820 | 189 ft | 20 kts | 268° |
| 2026-04-26 19:47 | 44.89570 | 13.91584 | 182 ft | 15 kts | 322° |
| 2026-04-26 19:48 | 44.89652 | 13.91580 | 182 ft | 7 kts | 317° |
| 2026-04-26 19:48 | 44.89655 | 13.91572 | 182 ft | 0 kts | 277° |